sensor_id;sensor_type;location;lat;lon;timestamp;pressure;altitude;pressure_sealevel;temperature;humidity
18145;BME280;14857;41.200;-8.326;2022-08-02T00:00:44;99775.75;;;24.71;100.00
18145;BME280;14857;41.200;-8.326;2022-08-02T00:03:13;99777.16;;;24.67;100.00
18145;BME280;14857;41.200;-8.326;2022-08-02T00:05:43;99755.34;;;24.50;100.00
18145;BME280;14857;41.200;-8.326;2022-08-02T00:08:21;99777.41;;;24.65;100.00
18145;BME280;14857;41.200;-8.326;2022-08-02T00:10:50;99781.28;;;24.63;100.00
18145;BME280;14857;41.200;-8.326;2022-08-02T00:13:18;99738.47;;;24.36;100.00
18145;BME280;14857;41.200;-8.326;2022-08-02T00:15:47;99734.78;;;24.37;100.00
18145;BME280;14857;41.200;-8.326;2022-08-02T00:18:15;99754.94;;;24.46;100.00
18145;BME280;14857;41.200;-8.326;2022-08-02T00:20:44;99755.78;;;24.40;100.00
18145;BME280;14857;41.200;-8.326;2022-08-02T00:23:13;99771.00;;;24.46;100.00
18145;BME280;14857;41.200;-8.326;2022-08-02T00:25:43;99731.09;;;24.19;100.00
18145;BME280;14857;41.200;-8.326;2022-08-02T00:28:22;99718.06;;;23.96;100.00
18145;BME280;14857;41.200;-8.326;2022-08-02T00:30:54;99743.78;;;24.10;100.00
18145;BME280;14857;41.200;-8.326;2022-08-02T00:33:24;99730.63;;;24.09;100.00
18145;BME280;14857;41.200;-8.326;2022-08-02T00:36:13;99746.28;;;24.12;100.00
18145;BME280;14857;41.200;-8.326;2022-08-02T00:38:42;99742.72;;;23.91;100.00
18145;BME280;14857;41.200;-8.326;2022-08-02T00:41:14;99742.91;;;23.90;100.00
18145;BME280;14857;41.200;-8.326;2022-08-02T00:43:43;99716.94;;;23.58;100.00
18145;BME280;14857;41.200;-8.326;2022-08-02T00:46:13;99722.09;;;23.66;100.00
18145;BME280;14857;41.200;-8.326;2022-08-02T00:48:42;99745.97;;;23.74;100.00
18145;BME280;14857;41.200;-8.326;2022-08-02T00:51:11;99759.34;;;23.80;100.00
18145;BME280;14857;41.200;-8.326;2022-08-02T00:53:40;99747.59;;;23.81;100.00
18145;BME280;14857;41.200;-8.326;2022-08-02T00:56:09;99740.63;;;23.80;100.00
18145;BME280;14857;41.200;-8.326;2022-08-02T00:58:39;99745.34;;;23.85;100.00
18145;BME280;14857;41.200;-8.326;2022-08-02T01:01:07;99740.63;;;23.74;100.00
18145;BME280;14857;41.200;-8.326;2022-08-02T01:03:36;99717.56;;;23.60;100.00
18145;BME280;14857;41.200;-8.326;2022-08-02T01:06:05;99731.16;;;23.65;100.00
18145;BME280;14857;41.200;-8.326;2022-08-02T01:08:38;99731.31;;;23.57;100.00
18145;BME280;14857;41.200;-8.326;2022-08-02T01:11:07;99723.09;;;23.51;100.00
18145;BME280;14857;41.200;-8.326;2022-08-02T01:13:35;99733.13;;;23.49;100.00
18145;BME280;14857;41.200;-8.326;2022-08-02T01:16:11;99734.47;;;23.32;100.00
18145;BME280;14857;41.200;-8.326;2022-08-02T01:18:44;99731.38;;;23.29;100.00
18145;BME280;14857;41.200;-8.326;2022-08-02T01:21:33;99714.63;;;23.07;100.00
18145;BME280;14857;41.200;-8.326;2022-08-02T01:24:16;99735.44;;;23.25;100.00
18145;BME280;14857;41.200;-8.326;2022-08-02T01:26:51;99722.81;;;23.06;100.00
18145;BME280;14857;41.200;-8.326;2022-08-02T01:29:27;99723.25;;;23.09;100.00
18145;BME280;14857;41.200;-8.326;2022-08-02T01:32:09;99693.19;;;22.87;100.00
18145;BME280;14857;41.200;-8.326;2022-08-02T01:34:43;99721.97;;;22.98;100.00
18145;BME280;14857;41.200;-8.326;2022-08-02T01:37:17;99725.53;;;23.12;100.00
18145;BME280;14857;41.200;-8.326;2022-08-02T01:39:50;99723.88;;;23.11;100.00
18145;BME280;14857;41.200;-8.326;2022-08-02T01:42:20;99729.25;;;23.18;100.00
18145;BME280;14857;41.200;-8.326;2022-08-02T01:44:52;99722.06;;;23.18;100.00
18145;BME280;14857;41.200;-8.326;2022-08-02T01:47:26;99687.09;;;23.00;100.00
18145;BME280;14857;41.200;-8.326;2022-08-02T01:49:57;99691.44;;;23.08;100.00
18145;BME280;14857;41.200;-8.326;2022-08-02T01:52:28;99683.84;;;23.11;100.00
18145;BME280;14857;41.200;-8.326;2022-08-02T01:55:00;99692.25;;;23.08;100.00
18145;BME280;14857;41.200;-8.326;2022-08-02T01:57:33;99693.59;;;22.91;100.00
18145;BME280;14857;41.200;-8.326;2022-08-02T02:00:10;99689.84;;;22.79;100.00
18145;BME280;14857;41.200;-8.326;2022-08-02T02:02:42;99713.75;;;22.93;100.00
18145;BME280;14857;41.200;-8.326;2022-08-02T02:05:13;99678.69;;;22.69;100.00
18145;BME280;14857;41.200;-8.326;2022-08-02T02:07:44;99675.28;;;22.54;100.00
18145;BME280;14857;41.200;-8.326;2022-08-02T02:10:15;99672.81;;;22.52;100.00
18145;BME280;14857;41.200;-8.326;2022-08-02T02:12:46;99688.75;;;22.67;100.00
18145;BME280;14857;41.200;-8.326;2022-08-02T02:15:19;99659.91;;;22.56;100.00
18145;BME280;14857;41.200;-8.326;2022-08-02T02:17:51;99643.50;;;22.52;100.00
18145;BME280;14857;41.200;-8.326;2022-08-02T02:20:40;99658.34;;;22.61;100.00
18145;BME280;14857;41.200;-8.326;2022-08-02T02:23:09;99644.09;;;22.47;100.00
18145;BME280;14857;41.200;-8.326;2022-08-02T02:25:40;99667.56;;;22.65;100.00
18145;BME280;14857;41.200;-8.326;2022-08-02T02:28:15;99698.06;;;22.77;100.00
18145;BME280;14857;41.200;-8.326;2022-08-02T02:30:48;99645.09;;;22.46;100.00
18145;BME280;14857;41.200;-8.326;2022-08-02T02:33:18;99697.63;;;22.74;100.00
18145;BME280;14857;41.200;-8.326;2022-08-02T02:35:53;99698.56;;;22.66;100.00
18145;BME280;14857;41.200;-8.326;2022-08-02T02:38:24;99690.94;;;22.63;100.00
18145;BME280;14857;41.200;-8.326;2022-08-02T02:40:55;99684.34;;;22.59;100.00
18145;BME280;14857;41.200;-8.326;2022-08-02T02:43:27;99667.34;;;22.32;100.00
18145;BME280;14857;41.200;-8.326;2022-08-02T02:45:59;99662.41;;;22.29;100.00
18145;BME280;14857;41.200;-8.326;2022-08-02T02:48:29;99677.41;;;22.37;100.00
18145;BME280;14857;41.200;-8.326;2022-08-02T02:51:00;99655.56;;;22.20;100.00
18145;BME280;14857;41.200;-8.326;2022-08-02T02:53:31;99692.41;;;22.38;100.00
18145;BME280;14857;41.200;-8.326;2022-08-02T02:56:20;99655.72;;;22.12;100.00
18145;BME280;14857;41.200;-8.326;2022-08-02T02:58:50;99674.69;;;22.30;100.00
18145;BME280;14857;41.200;-8.326;2022-08-02T03:01:22;99663.44;;;22.07;100.00
18145;BME280;14857;41.200;-8.326;2022-08-02T03:04:18;99663.69;;;21.91;100.00
18145;BME280;14857;41.200;-8.326;2022-08-02T03:06:47;99657.22;;;21.79;100.00
18145;BME280;14857;41.200;-8.326;2022-08-02T03:09:16;99667.69;;;21.80;100.00
18145;BME280;14857;41.200;-8.326;2022-08-02T03:11:45;99669.38;;;21.88;100.00
18145;BME280;14857;41.200;-8.326;2022-08-02T03:14:14;99671.19;;;22.02;100.00
18145;BME280;14857;41.200;-8.326;2022-08-02T03:16:47;99704.16;;;22.22;100.00
18145;BME280;14857;41.200;-8.326;2022-08-02T03:19:17;99689.75;;;22.17;100.00
18145;BME280;14857;41.200;-8.326;2022-08-02T03:21:47;99655.59;;;21.99;100.00
18145;BME280;14857;41.200;-8.326;2022-08-02T03:24:23;99685.69;;;22.21;100.00
18145;BME280;14857;41.200;-8.326;2022-08-02T03:26:54;99680.94;;;22.16;100.00
18145;BME280;14857;41.200;-8.326;2022-08-02T03:29:23;99659.25;;;21.98;100.00
18145;BME280;14857;41.200;-8.326;2022-08-02T03:31:53;99681.34;;;22.13;100.00
18145;BME280;14857;41.200;-8.326;2022-08-02T03:34:22;99655.53;;;21.92;100.00
18145;BME280;14857;41.200;-8.326;2022-08-02T03:36:54;99655.97;;;21.96;100.00
18145;BME280;14857;41.200;-8.326;2022-08-02T03:39:25;99654.69;;;21.92;100.00
18145;BME280;14857;41.200;-8.326;2022-08-02T03:41:54;99687.84;;;22.11;100.00
18145;BME280;14857;41.200;-8.326;2022-08-02T03:44:24;99656.59;;;21.98;100.00
18145;BME280;14857;41.200;-8.326;2022-08-02T03:46:55;99654.59;;;22.00;100.00
18145;BME280;14857;41.200;-8.326;2022-08-02T03:49:24;99663.63;;;22.06;100.00
18145;BME280;14857;41.200;-8.326;2022-08-02T03:51:53;99666.09;;;21.86;100.00
18145;BME280;14857;41.200;-8.326;2022-08-02T03:54:22;99670.69;;;21.92;100.00
18145;BME280;14857;41.200;-8.326;2022-08-02T03:57:01;99670.06;;;21.75;100.00
18145;BME280;14857;41.200;-8.326;2022-08-02T03:59:39;99658.84;;;21.59;100.00
18145;BME280;14857;41.200;-8.326;2022-08-02T04:05:13;99653.34;;;21.60;100.00
18145;BME280;14857;41.200;-8.326;2022-08-02T04:07:41;99645.16;;;21.62;100.00
18145;BME280;14857;41.200;-8.326;2022-08-02T04:10:30;99628.81;;;21.43;100.00
18145;BME280;14857;41.200;-8.326;2022-08-02T04:13:20;99626.91;;;21.37;100.00
18145;BME280;14857;41.200;-8.326;2022-08-02T04:16:02;99665.25;;;21.64;100.00
18145;BME280;14857;41.200;-8.326;2022-08-02T04:18:37;99660.19;;;21.69;100.00
18145;BME280;14857;41.200;-8.326;2022-08-02T04:21:12;99650.75;;;21.67;100.00
18145;BME280;14857;41.200;-8.326;2022-08-02T04:23:42;99624.00;;;21.54;100.00
18145;BME280;14857;41.200;-8.326;2022-08-02T04:26:13;99662.28;;;21.74;100.00
18145;BME280;14857;41.200;-8.326;2022-08-02T04:28:43;99603.41;;;21.41;100.00
18145;BME280;14857;41.200;-8.326;2022-08-02T04:31:12;99644.16;;;21.63;100.00
18145;BME280;14857;41.200;-8.326;2022-08-02T04:33:41;99667.22;;;21.77;100.00
18145;BME280;14857;41.200;-8.326;2022-08-02T04:36:12;99662.22;;;21.67;100.00
18145;BME280;14857;41.200;-8.326;2022-08-02T04:38:57;99661.31;;;21.60;100.00
18145;BME280;14857;41.200;-8.326;2022-08-02T04:41:36;99669.84;;;21.56;100.00
18145;BME280;14857;41.200;-8.326;2022-08-02T04:44:10;99675.47;;;21.46;100.00
18145;BME280;14857;41.200;-8.326;2022-08-02T04:46:40;99643.25;;;21.05;100.00
18145;BME280;14857;41.200;-8.326;2022-08-02T04:49:09;99648.31;;;21.00;100.00
18145;BME280;14857;41.200;-8.326;2022-08-02T04:51:40;99681.31;;;21.20;100.00
18145;BME280;14857;41.200;-8.326;2022-08-02T04:54:10;99677.41;;;21.16;100.00
18145;BME280;14857;41.200;-8.326;2022-08-02T04:56:39;99632.56;;;20.84;100.00
18145;BME280;14857;41.200;-8.326;2022-08-02T04:59:08;99613.03;;;20.77;100.00
18145;BME280;14857;41.200;-8.326;2022-08-02T05:01:38;99674.00;;;21.22;100.00
18145;BME280;14857;41.200;-8.326;2022-08-02T05:04:08;99641.81;;;21.03;100.00
18145;BME280;14857;41.200;-8.326;2022-08-02T05:06:38;99661.00;;;21.13;100.00
18145;BME280;14857;41.200;-8.326;2022-08-02T05:09:07;99621.19;;;20.90;100.00
18145;BME280;14857;41.200;-8.326;2022-08-02T05:11:35;99666.63;;;21.24;100.00
18145;BME280;14857;41.200;-8.326;2022-08-02T05:14:04;99645.13;;;20.90;100.00
18145;BME280;14857;41.200;-8.326;2022-08-02T05:16:33;99630.78;;;20.91;100.00
18145;BME280;14857;41.200;-8.326;2022-08-02T05:19:02;99665.72;;;21.17;100.00
18145;BME280;14857;41.200;-8.326;2022-08-02T05:21:30;99637.78;;;20.92;100.00
18145;BME280;14857;41.200;-8.326;2022-08-02T05:24:00;99670.13;;;21.10;100.00
18145;BME280;14857;41.200;-8.326;2022-08-02T05:26:29;99648.53;;;20.84;100.00
18145;BME280;14857;41.200;-8.326;2022-08-02T05:28:58;99647.88;;;20.97;100.00
18145;BME280;14857;41.200;-8.326;2022-08-02T05:31:27;99677.75;;;20.99;100.00
18145;BME280;14857;41.200;-8.326;2022-08-02T05:33:55;99686.91;;;20.96;100.00
18145;BME280;14857;41.200;-8.326;2022-08-02T05:36:25;99674.53;;;21.03;100.00
18145;BME280;14857;41.200;-8.326;2022-08-02T05:38:54;99660.25;;;20.89;100.00
18145;BME280;14857;41.200;-8.326;2022-08-02T05:41:32;99657.66;;;20.96;100.00
18145;BME280;14857;41.200;-8.326;2022-08-02T05:44:01;99624.94;;;20.81;100.00
18145;BME280;14857;41.200;-8.326;2022-08-02T05:46:29;99693.25;;;21.24;100.00
18145;BME280;14857;41.200;-8.326;2022-08-02T05:48:58;99660.22;;;21.04;100.00
18145;BME280;14857;41.200;-8.326;2022-08-02T05:51:32;99698.94;;;21.21;100.00
18145;BME280;14857;41.200;-8.326;2022-08-02T05:54:11;99663.63;;;20.83;100.00
18145;BME280;14857;41.200;-8.326;2022-08-02T05:56:45;99679.41;;;21.00;100.00
18145;BME280;14857;41.200;-8.326;2022-08-02T05:59:25;99695.81;;;21.32;100.00
18145;BME280;14857;41.200;-8.326;2022-08-02T06:01:56;99702.66;;;21.41;100.00
18145;BME280;14857;41.200;-8.326;2022-08-02T06:04:29;99707.13;;;21.56;100.00
18145;BME280;14857;41.200;-8.326;2022-08-02T06:07:02;99708.94;;;21.70;100.00
18145;BME280;14857;41.200;-8.326;2022-08-02T06:09:33;99696.25;;;21.72;100.00
18145;BME280;14857;41.200;-8.326;2022-08-02T06:12:06;99675.41;;;21.75;100.00
18145;BME280;14857;41.200;-8.326;2022-08-02T06:14:36;99642.50;;;21.83;100.00
18145;BME280;14857;41.200;-8.326;2022-08-02T06:17:05;99709.78;;;22.83;100.00
18145;BME280;14857;41.200;-8.326;2022-08-02T06:19:36;99687.34;;;23.52;100.00
18145;BME280;14857;41.200;-8.326;2022-08-02T06:22:18;99681.31;;;24.37;100.00
18145;BME280;14857;41.200;-8.326;2022-08-02T06:25:03;99711.22;;;25.31;100.00
18145;BME280;14857;41.200;-8.326;2022-08-02T06:27:54;99705.06;;;26.06;100.00
18145;BME280;14857;41.200;-8.326;2022-08-02T06:30:23;99716.22;;;26.59;100.00
18145;BME280;14857;41.200;-8.326;2022-08-02T06:32:52;99709.59;;;26.87;100.00
18145;BME280;14857;41.200;-8.326;2022-08-02T06:35:21;99726.16;;;27.38;100.00
18145;BME280;14857;41.200;-8.326;2022-08-02T06:37:55;99694.63;;;27.82;100.00
18145;BME280;14857;41.200;-8.326;2022-08-02T06:40:31;99711.91;;;28.69;100.00
18145;BME280;14857;41.200;-8.326;2022-08-02T06:43:10;99693.56;;;29.17;100.00
18145;BME280;14857;41.200;-8.326;2022-08-02T06:45:39;99673.22;;;29.49;95.89
18145;BME280;14857;41.200;-8.326;2022-08-02T06:48:08;99714.88;;;30.43;91.85
18145;BME280;14857;41.200;-8.326;2022-08-02T06:50:37;99727.25;;;31.11;88.15
18145;BME280;14857;41.200;-8.326;2022-08-02T06:53:08;99693.94;;;31.27;86.12
18145;BME280;14857;41.200;-8.326;2022-08-02T06:55:37;99691.91;;;31.39;84.64
18145;BME280;14857;41.200;-8.326;2022-08-02T06:58:12;99726.25;;;32.09;81.61
18145;BME280;14857;41.200;-8.326;2022-08-02T07:00:41;99705.44;;;32.46;78.08
18145;BME280;14857;41.200;-8.326;2022-08-02T07:03:10;99712.56;;;32.99;75.41
18145;BME280;14857;41.200;-8.326;2022-08-02T07:05:39;99703.25;;;33.27;74.12
18145;BME280;14857;41.200;-8.326;2022-08-02T07:08:09;99731.63;;;33.61;72.69
18145;BME280;14857;41.200;-8.326;2022-08-02T07:10:38;99706.28;;;33.36;73.23
18145;BME280;14857;41.200;-8.326;2022-08-02T07:13:06;99708.31;;;33.70;70.75
18145;BME280;14857;41.200;-8.326;2022-08-02T07:15:39;99728.47;;;34.91;67.74
18145;BME280;14857;41.200;-8.326;2022-08-02T07:18:15;99709.66;;;35.04;65.96
18145;BME280;14857;41.200;-8.326;2022-08-02T07:20:44;99742.13;;;34.60;66.26
18145;BME280;14857;41.200;-8.326;2022-08-02T07:23:13;99732.56;;;34.78;66.60
18145;BME280;14857;41.200;-8.326;2022-08-02T07:25:44;99712.38;;;35.14;65.21
18145;BME280;14857;41.200;-8.326;2022-08-02T07:28:30;99715.72;;;35.55;63.57
18145;BME280;14857;41.200;-8.326;2022-08-02T07:31:00;99752.94;;;36.24;61.88
18145;BME280;14857;41.200;-8.326;2022-08-02T07:33:29;99741.53;;;36.17;61.80
18145;BME280;14857;41.200;-8.326;2022-08-02T07:36:06;99746.63;;;36.91;58.89
18145;BME280;14857;41.200;-8.326;2022-08-02T07:38:43;99710.88;;;36.93;57.66
18145;BME280;14857;41.200;-8.326;2022-08-02T07:41:12;99742.22;;;37.66;56.24
18145;BME280;14857;41.200;-8.326;2022-08-02T07:43:41;99725.16;;;37.74;56.02
18145;BME280;14857;41.200;-8.326;2022-08-02T07:46:12;99736.38;;;37.97;54.81
18145;BME280;14857;41.200;-8.326;2022-08-02T07:48:40;99741.44;;;38.22;54.69
18145;BME280;14857;41.200;-8.326;2022-08-02T07:51:09;99736.50;;;38.56;53.90
18145;BME280;14857;41.200;-8.326;2022-08-02T07:53:43;99726.56;;;38.28;54.33
18145;BME280;14857;41.200;-8.326;2022-08-02T07:56:17;99719.19;;;38.10;55.33
18145;BME280;14857;41.200;-8.326;2022-08-02T07:58:46;99714.72;;;36.92;57.41
18145;BME280;14857;41.200;-8.326;2022-08-02T08:01:16;99722.16;;;37.57;56.11
18145;BME280;14857;41.200;-8.326;2022-08-02T08:03:45;99733.94;;;38.46;54.49
18145;BME280;14857;41.200;-8.326;2022-08-02T08:06:14;99733.47;;;38.71;53.24
18145;BME280;14857;41.200;-8.326;2022-08-02T08:08:42;99728.88;;;36.65;56.42
18145;BME280;14857;41.200;-8.326;2022-08-02T08:11:11;99742.19;;;36.71;57.30
18145;BME280;14857;41.200;-8.326;2022-08-02T08:13:39;99750.38;;;37.90;55.31
18145;BME280;14857;41.200;-8.326;2022-08-02T08:16:08;99723.84;;;38.60;53.51
18145;BME280;14857;41.200;-8.326;2022-08-02T08:18:38;99751.25;;;40.41;50.42
18145;BME280;14857;41.200;-8.326;2022-08-02T08:21:07;99727.97;;;39.58;50.57
18145;BME280;14857;41.200;-8.326;2022-08-02T08:23:36;99759.31;;;40.91;48.21
18145;BME280;14857;41.200;-8.326;2022-08-02T08:26:04;99729.66;;;41.49;46.52
18145;BME280;14857;41.200;-8.326;2022-08-02T08:28:33;99757.84;;;41.15;46.38
18145;BME280;14857;41.200;-8.326;2022-08-02T08:31:02;99753.59;;;40.78;47.09
18145;BME280;14857;41.200;-8.326;2022-08-02T08:33:31;99740.38;;;42.36;44.63
18145;BME280;14857;41.200;-8.326;2022-08-02T08:36:01;99740.41;;;42.91;43.42
18145;BME280;14857;41.200;-8.326;2022-08-02T08:38:31;99732.03;;;43.55;41.35
18145;BME280;14857;41.200;-8.326;2022-08-02T08:41:00;99724.16;;;43.16;42.20
18145;BME280;14857;41.200;-8.326;2022-08-02T08:43:29;99735.91;;;44.37;39.65
18145;BME280;14857;41.200;-8.326;2022-08-02T08:45:57;99715.75;;;44.69;39.07
18145;BME280;14857;41.200;-8.326;2022-08-02T08:48:26;99739.53;;;46.07;37.58
18145;BME280;14857;41.200;-8.326;2022-08-02T08:51:06;99709.31;;;45.62;36.88
18145;BME280;14857;41.200;-8.326;2022-08-02T08:53:39;99686.06;;;45.51;36.58
18145;BME280;14857;41.200;-8.326;2022-08-02T08:56:11;99706.81;;;45.45;36.42
18145;BME280;14857;41.200;-8.326;2022-08-02T08:58:43;99677.38;;;45.13;35.85
18145;BME280;14857;41.200;-8.326;2022-08-02T09:01:14;99710.88;;;46.15;34.82
18145;BME280;14857;41.200;-8.326;2022-08-02T09:03:44;99707.53;;;46.37;35.23
18145;BME280;14857;41.200;-8.326;2022-08-02T09:06:14;99714.19;;;46.49;34.92
18145;BME280;14857;41.200;-8.326;2022-08-02T09:08:43;99709.00;;;47.25;33.92
18145;BME280;14857;41.200;-8.326;2022-08-02T09:11:13;99695.50;;;47.59;32.77
18145;BME280;14857;41.200;-8.326;2022-08-02T09:13:49;99711.28;;;48.31;33.00
18145;BME280;14857;41.200;-8.326;2022-08-02T09:16:33;99706.22;;;47.95;33.10
18145;BME280;14857;41.200;-8.326;2022-08-02T09:19:17;99675.88;;;47.67;32.45
18145;BME280;14857;41.200;-8.326;2022-08-02T09:21:48;99694.16;;;48.71;31.66
18145;BME280;14857;41.200;-8.326;2022-08-02T09:24:18;99704.81;;;47.85;32.74
18145;BME280;14857;41.200;-8.326;2022-08-02T09:26:48;99716.56;;;48.17;32.17
18145;BME280;14857;41.200;-8.326;2022-08-02T09:29:20;99712.41;;;47.69;32.70
18145;BME280;14857;41.200;-8.326;2022-08-02T09:31:50;99694.78;;;47.62;32.26
18145;BME280;14857;41.200;-8.326;2022-08-02T09:34:20;99695.59;;;48.01;31.85
18145;BME280;14857;41.200;-8.326;2022-08-02T09:36:50;99703.50;;;48.60;31.62
18145;BME280;14857;41.200;-8.326;2022-08-02T09:39:20;99714.97;;;47.43;32.61
18145;BME280;14857;41.200;-8.326;2022-08-02T09:42:06;99712.81;;;47.52;32.48
18145;BME280;14857;41.200;-8.326;2022-08-02T09:44:37;99693.09;;;47.57;31.49
18145;BME280;14857;41.200;-8.326;2022-08-02T09:47:13;99715.81;;;47.47;31.82
18145;BME280;14857;41.200;-8.326;2022-08-02T09:49:45;99720.28;;;48.06;31.13
18145;BME280;14857;41.200;-8.326;2022-08-02T09:52:25;99711.34;;;48.35;31.49
18145;BME280;14857;41.200;-8.326;2022-08-02T09:55:09;99694.19;;;48.52;30.71
18145;BME280;14857;41.200;-8.326;2022-08-02T09:57:39;99695.75;;;48.27;31.12
18145;BME280;14857;41.200;-8.326;2022-08-02T10:00:08;99702.66;;;49.05;30.48
18145;BME280;14857;41.200;-8.326;2022-08-02T10:03:04;99716.34;;;49.17;30.60
18145;BME280;14857;41.200;-8.326;2022-08-02T10:05:47;99695.25;;;49.42;30.15
18145;BME280;14857;41.200;-8.326;2022-08-02T10:08:30;99717.31;;;50.17;29.70
18145;BME280;14857;41.200;-8.326;2022-08-02T10:11:00;99690.34;;;50.25;28.97
18145;BME280;14857;41.200;-8.326;2022-08-02T10:13:31;99715.94;;;50.34;28.90
18145;BME280;14857;41.200;-8.326;2022-08-02T10:16:02;99711.66;;;50.10;28.72
18145;BME280;14857;41.200;-8.326;2022-08-02T10:18:30;99684.19;;;50.46;28.56
18145;BME280;14857;41.200;-8.326;2022-08-02T10:21:06;99716.00;;;50.08;28.40
18145;BME280;14857;41.200;-8.326;2022-08-02T10:23:41;99719.41;;;49.94;28.47
18145;BME280;14857;41.200;-8.326;2022-08-02T10:26:16;99719.69;;;50.19;28.79
18145;BME280;14857;41.200;-8.326;2022-08-02T10:28:46;99678.06;;;48.84;29.31
18145;BME280;14857;41.200;-8.326;2022-08-02T10:31:21;99711.06;;;50.27;28.84
18145;BME280;14857;41.200;-8.326;2022-08-02T10:33:53;99688.06;;;48.20;30.71
18145;BME280;14857;41.200;-8.326;2022-08-02T10:36:23;99700.94;;;45.22;34.08
18145;BME280;14857;41.200;-8.326;2022-08-02T10:38:55;99694.88;;;46.09;33.65
18145;BME280;14857;41.200;-8.326;2022-08-02T10:41:46;99693.22;;;45.52;34.08
18145;BME280;14857;41.200;-8.326;2022-08-02T10:44:24;99682.31;;;45.83;33.54
18145;BME280;14857;41.200;-8.326;2022-08-02T10:47:21;99693.47;;;44.62;35.90
18145;BME280;14857;41.200;-8.326;2022-08-02T10:49:52;99680.94;;;46.33;33.60
18145;BME280;14857;41.200;-8.326;2022-08-02T10:52:22;99702.97;;;45.62;33.70
18145;BME280;14857;41.200;-8.326;2022-08-02T10:54:56;99661.09;;;43.14;37.30
18145;BME280;14857;41.200;-8.326;2022-08-02T10:57:26;99674.34;;;43.50;37.13
18145;BME280;14857;41.200;-8.326;2022-08-02T10:59:56;99670.06;;;45.45;34.49
18145;BME280;14857;41.200;-8.326;2022-08-02T11:02:34;99687.59;;;42.60;38.93
18145;BME280;14857;41.200;-8.326;2022-08-02T11:05:14;99664.63;;;42.48;39.62
18145;BME280;14857;41.200;-8.326;2022-08-02T11:07:45;99689.75;;;42.37;40.14
18145;BME280;14857;41.200;-8.326;2022-08-02T11:10:37;99679.19;;;41.19;40.88
18145;BME280;14857;41.200;-8.326;2022-08-02T11:13:08;99670.25;;;40.35;42.41
18145;BME280;14857;41.200;-8.326;2022-08-02T11:15:52;99679.75;;;42.33;40.35
18145;BME280;14857;41.200;-8.326;2022-08-02T11:19:01;99652.88;;;43.76;37.81
18145;BME280;14857;41.200;-8.326;2022-08-02T11:21:34;99672.41;;;42.46;38.62
18145;BME280;14857;41.200;-8.326;2022-08-02T11:24:28;99676.09;;;43.55;37.68
18145;BME280;14857;41.200;-8.326;2022-08-02T11:26:59;99671.16;;;44.34;36.61
18145;BME280;14857;41.200;-8.326;2022-08-02T11:29:36;99653.06;;;42.16;40.03
18145;BME280;14857;41.200;-8.326;2022-08-02T11:32:06;99661.66;;;40.28;43.59
18145;BME280;14857;41.200;-8.326;2022-08-02T11:34:35;99658.72;;;38.76;46.51
18145;BME280;14857;41.200;-8.326;2022-08-02T11:37:06;99653.25;;;38.30;48.32
18145;BME280;14857;41.200;-8.326;2022-08-02T11:39:35;99653.06;;;37.75;51.30
18145;BME280;14857;41.200;-8.326;2022-08-02T11:42:05;99643.91;;;36.81;54.39
18145;BME280;14857;41.200;-8.326;2022-08-02T11:44:39;99641.66;;;36.36;55.63
18145;BME280;14857;41.200;-8.326;2022-08-02T11:47:08;99658.47;;;36.43;57.64
18145;BME280;14857;41.200;-8.326;2022-08-02T11:49:37;99662.88;;;36.05;60.31
18145;BME280;14857;41.200;-8.326;2022-08-02T11:52:07;99651.75;;;37.54;58.28
18145;BME280;14857;41.200;-8.326;2022-08-02T11:54:39;99627.75;;;36.04;61.68
18145;BME280;14857;41.200;-8.326;2022-08-02T11:57:17;99643.22;;;36.95;60.04
18145;BME280;14857;41.200;-8.326;2022-08-02T11:59:49;99641.75;;;36.78;59.64
18145;BME280;14857;41.200;-8.326;2022-08-02T12:02:19;99640.81;;;36.64;60.47
18145;BME280;14857;41.200;-8.326;2022-08-02T12:04:52;99648.97;;;36.41;61.03
18145;BME280;14857;41.200;-8.326;2022-08-02T12:07:25;99649.09;;;36.25;60.71
18145;BME280;14857;41.200;-8.326;2022-08-02T12:10:04;99641.03;;;36.15;62.62
18145;BME280;14857;41.200;-8.326;2022-08-02T12:12:46;99638.38;;;36.05;63.95
18145;BME280;14857;41.200;-8.326;2022-08-02T12:15:27;99629.75;;;35.59;64.05
18145;BME280;14857;41.200;-8.326;2022-08-02T12:17:58;99623.31;;;35.40;64.37
18145;BME280;14857;41.200;-8.326;2022-08-02T12:20:45;99641.88;;;35.23;66.01
18145;BME280;14857;41.200;-8.326;2022-08-02T12:23:13;99638.66;;;35.16;65.23
18145;BME280;14857;41.200;-8.326;2022-08-02T12:25:42;99639.22;;;35.18;67.00
18145;BME280;14857;41.200;-8.326;2022-08-02T12:28:17;99650.00;;;35.33;66.73
18145;BME280;14857;41.200;-8.326;2022-08-02T12:30:52;99646.94;;;35.45;68.65
18145;BME280;14857;41.200;-8.326;2022-08-02T12:33:21;99639.94;;;35.34;66.74
18145;BME280;14857;41.200;-8.326;2022-08-02T12:35:51;99637.69;;;35.46;67.57
18145;BME280;14857;41.200;-8.326;2022-08-02T12:38:20;99635.84;;;35.36;67.41
18145;BME280;14857;41.200;-8.326;2022-08-02T12:40:48;99639.13;;;35.33;67.05
18145;BME280;14857;41.200;-8.326;2022-08-02T12:43:21;99624.53;;;35.04;67.80
18145;BME280;14857;41.200;-8.326;2022-08-02T12:45:52;99640.03;;;35.03;66.62
18145;BME280;14857;41.200;-8.326;2022-08-02T12:48:32;99624.88;;;34.87;67.43
18145;BME280;14857;41.200;-8.326;2022-08-02T12:51:18;99636.69;;;34.47;68.87
18145;BME280;14857;41.200;-8.326;2022-08-02T12:53:46;99644.19;;;34.91;68.18
18145;BME280;14857;41.200;-8.326;2022-08-02T12:56:27;99644.94;;;35.06;68.33
18145;BME280;14857;41.200;-8.326;2022-08-02T12:58:58;99639.22;;;35.18;65.41
18145;BME280;14857;41.200;-8.326;2022-08-02T13:01:27;99647.13;;;35.04;67.30
18145;BME280;14857;41.200;-8.326;2022-08-02T13:03:56;99642.13;;;34.22;70.82
18145;BME280;14857;41.200;-8.326;2022-08-02T13:06:39;99643.16;;;34.51;69.39
18145;BME280;14857;41.200;-8.326;2022-08-02T13:09:13;99641.00;;;34.48;68.22
18145;BME280;14857;41.200;-8.326;2022-08-02T13:11:42;99638.28;;;34.48;69.76
18145;BME280;14857;41.200;-8.326;2022-08-02T13:14:12;99648.06;;;34.54;68.64
18145;BME280;14857;41.200;-8.326;2022-08-02T13:16:43;99643.75;;;34.33;68.75